This is the latest recevied weather packets stored in our database for station/object EB1GOD-1. If no packets are shown the sender has not sent any weather packets the latest 10 day(s).
| Time | Temp. | Humidity | Pressure | Rain* | Wind** | Luminosity | Snow |
|---|---|---|---|---|---|---|---|
| 1777407305 | 16.67° C | 72% | 1150.1 hPa | - | - | - | - |
| 1777406405 | 17.78° C | 68% | 1150 hPa | - | - | - | - |
| 1777405505 | 17.78° C | 70% | 1149.7 hPa | - | - | - | - |
| 1777404606 | 17.78° C | 71% | 1149.8 hPa | - | - | - | - |
| 1777403705 | 18.33° C | 70% | 1149.6 hPa | - | - | - | - |
| 1777402805 | 18.89° C | 66% | 1149.5 hPa | - | - | - | - |
| 1777401905 | 19.44° C | 62% | 1149.6 hPa | - | - | - | - |
| 1777401005 | 20° C | 62% | 1149.5 hPa | - | - | - | - |
| 1777400105 | 19.44° C | 60% | 1149.5 hPa | - | - | - | - |
| 1777399205 | 18.33° C | 70% | 1149.5 hPa | - | - | - | - |
| 1777398305 | 20° C | 63% | 1149.6 hPa | - | - | - | - |
| 1777397407 | 21.67° C | 55% | 1149.7 hPa | - | - | - | - |
| 1777396502 | 21.67° C | 54% | 1149.6 hPa | - | - | - | - |
| 1777395602 | 22.78° C | 55% | 1149.7 hPa | - | - | - | - |
| 1777394702 | 23.33° C | 52% | 1149.7 hPa | - | - | - | - |
| 1777393810 | 21.67° C | 54% | 1149.6 hPa | - | - | - | - |
| 1777392908 | 23.33° C | 54% | 1149.5 hPa | - | - | - | - |
| 1777392002 | 22.22° C | 57% | 1149.8 hPa | - | - | - | - |
| 1777391145 | 20.56° C | 59% | 1149.8 hPa | - | - | - | - |
| 1777391102 | 20.56° C | 59% | 1149.8 hPa | - | - | - | - |
| 1777390202 | 21.11° C | 60% | 1150.1 hPa | - | - | - | - |
| 1777389302 | 21.11° C | 60% | 1149.9 hPa | - | - | - | - |
| 1777388402 | 20.56° C | 64% | 1150.1 hPa | - | - | - | - |
| 1777387488 | 21.11° C | 60% | 1150 hPa | - | - | - | - |
| 1777386588 | 20.56° C | 63% | 1150.2 hPa | - | - | - | - |
* Rain since midnight (hover to see other rain measurements)
** Current wind speed in m/s (hover to see current wind gust speed)